Terminal Aerodrome Forecast
Issued by NWS Jacksonville, FL

Home | Current Version | Previous Version | Text Only | Print | Product List | Glossary On
Versions: 1 2 3 4 5 6 7 8 9 10 11 12 13 14
975
FTUS42 KJAX 201121
TAFSSI
TAF
KSSI 201121Z 2012/2112 18004KT P6SM FEW050 SCT080
     FM201400 25005KT P6SM FEW050 SCT090
     FM201900 14008KT P6SM SCT030 SCT100
     FM210300 17006KT P6SM SCT060 SCT250=

USA.gov is the U.S. government's official web portal to all federal, state and local government web resources and services.